createdAt,value
2023-02-08T00:00:35.640Z,141.10
2023-02-08T00:03:02.152Z,139.10
2023-02-08T00:05:28.914Z,138.50
2023-02-08T00:07:55.659Z,140.10
2023-02-08T00:10:22.252Z,129.80
2023-02-08T00:12:48.755Z,140.20
2023-02-08T00:15:15.278Z,141.80
2023-02-08T00:17:41.670Z,132.20
2023-02-08T00:20:09.174Z,136.70
2023-02-08T00:22:35.843Z,141.90
2023-02-08T00:25:02.381Z,140.20
2023-02-08T00:27:28.797Z,146.10
2023-02-08T00:29:55.242Z,139.40
2023-02-08T00:32:21.764Z,143.50
2023-02-08T00:34:48.308Z,136.80
2023-02-08T00:37:14.884Z,147.20
2023-02-08T00:39:41.385Z,134.70
2023-02-08T00:42:08.141Z,150.30
2023-02-08T00:44:34.873Z,134.40
2023-02-08T00:47:01.410Z,149.00
2023-02-08T00:49:27.946Z,153.00
2023-02-08T00:51:54.792Z,151.80
2023-02-08T00:54:21.861Z,149.30
2023-02-08T00:56:48.356Z,151.20
2023-02-08T00:59:15.360Z,158.30
2023-02-08T01:01:42.193Z,154.00
2023-02-08T01:04:08.745Z,156.60
2023-02-08T01:06:35.206Z,155.00
2023-02-08T01:09:01.808Z,158.90
2023-02-08T01:11:28.549Z,155.90
2023-02-08T01:13:57.469Z,161.10
2023-02-08T01:16:27.461Z,152.80
2023-02-08T01:18:55.645Z,153.70
2023-02-08T01:21:48.714Z,153.40
2023-02-08T01:24:15.157Z,163.70
2023-02-08T01:26:41.579Z,165.10
2023-02-08T01:29:08.169Z,160.70
2023-02-08T01:31:37.479Z,152.50
2023-02-08T01:34:05.119Z,161.20
2023-02-08T01:36:33.780Z,155.90
2023-02-08T01:39:00.459Z,162.90
2023-02-08T01:41:30.751Z,165.00
2023-02-08T01:44:12.674Z,164.70
2023-02-08T01:46:39.106Z,155.10
2023-02-08T01:49:13.226Z,160.10
2023-02-08T01:51:45.607Z,153.40
2023-02-08T01:54:14.864Z,164.20
2023-02-08T01:56:43.501Z,164.50
2023-02-08T01:59:16.058Z,157.90
2023-02-08T02:01:45.991Z,159.00
2023-02-08T02:04:13.406Z,153.90
2023-02-08T02:06:45.468Z,162.80
2023-02-08T02:09:32.941Z,163.20
2023-02-08T02:12:00.400Z,156.30
2023-02-08T02:14:27.252Z,153.50
2023-02-08T02:16:53.724Z,158.40
2023-02-08T02:19:54.951Z,153.70
2023-02-08T02:22:36.633Z,159.20
2023-02-08T02:28:20.487Z,147.50
2023-02-08T02:31:07.230Z,169.80
2023-02-08T02:33:41.983Z,160.20
2023-02-08T02:36:11.342Z,175.00
2023-02-08T02:39:05.346Z,175.00
2023-02-08T02:41:47.459Z,175.60
2023-02-08T02:44:28.646Z,178.90
2023-02-08T02:47:42.088Z,180.10
2023-02-08T02:50:08.697Z,172.70
2023-02-08T02:52:45.043Z,191.90
2023-02-08T02:55:16.490Z,182.50
2023-02-08T02:57:44.903Z,192.10
2023-02-08T03:00:18.540Z,181.00
2023-02-08T03:02:45.165Z,167.60
2023-02-08T03:05:12.875Z,168.80
2023-02-08T03:08:00.906Z,169.20
2023-02-08T03:11:04.069Z,166.00
2023-02-08T03:13:33.279Z,167.10
2023-02-08T03:16:12.142Z,176.80
2023-02-08T03:18:50.972Z,173.80
2023-02-08T03:21:35.503Z,171.60
2023-02-08T03:24:14.408Z,168.70
2023-02-08T03:27:13.364Z,166.60
2023-02-08T03:29:44.027Z,194.90
2023-02-08T03:32:16.664Z,169.20
2023-02-08T03:34:53.930Z,166.50
2023-02-08T03:37:25.394Z,160.50
2023-02-08T03:39:58.990Z,175.00
2023-02-08T03:42:28.268Z,173.30
2023-02-08T03:44:59.843Z,166.90
2023-02-08T03:50:00.113Z,168.80
2023-02-08T03:52:30.029Z,157.20
2023-02-08T03:55:12.282Z,155.90
2023-02-08T03:57:48.330Z,153.90
2023-02-08T04:00:17.264Z,167.40
2023-02-08T04:03:00.158Z,171.00
2023-02-08T04:05:28.137Z,165.40
2023-02-08T04:07:54.672Z,166.80
2023-02-08T04:10:21.494Z,176.90
2023-02-08T04:12:49.492Z,159.60
2023-02-08T04:15:16.656Z,160.40
2023-02-08T04:17:43.214Z,167.00
2023-02-08T04:20:10.381Z,178.60
2023-02-08T04:22:36.873Z,160.70
2023-02-08T04:25:04.907Z,157.20
2023-02-08T04:27:31.534Z,161.20
2023-02-08T04:29:58.288Z,161.70
2023-02-08T04:32:24.949Z,166.00
2023-02-08T04:34:51.742Z,158.30
2023-02-08T04:37:18.272Z,147.30
2023-02-08T04:39:44.810Z,140.00
2023-02-08T04:42:11.295Z,155.40
2023-02-08T04:44:37.891Z,150.10
2023-02-08T04:47:04.949Z,129.20
2023-02-08T04:49:31.583Z,141.30
2023-02-08T04:51:58.139Z,128.00
2023-02-08T04:54:24.993Z,136.50
2023-02-08T04:56:51.789Z,134.80
2023-02-08T04:59:18.265Z,143.00
2023-02-08T05:01:44.819Z,137.00
2023-02-08T05:04:11.750Z,138.50
2023-02-08T05:06:38.495Z,149.40
2023-02-08T05:09:08.476Z,156.60
2023-02-08T05:11:35.567Z,189.80
2023-02-08T05:14:03.032Z,163.60
2023-02-08T05:16:29.576Z,156.60
2023-02-08T05:18:56.870Z,153.20
2023-02-08T05:21:23.643Z,157.20
2023-02-08T05:23:51.365Z,132.00
2023-02-08T05:26:18.010Z,151.60
2023-02-08T05:28:44.753Z,138.60
2023-02-08T05:31:18.232Z,139.80
2023-02-08T05:33:45.080Z,148.10
2023-02-08T05:36:11.496Z,128.30
2023-02-08T05:38:38.365Z,110.60
2023-02-08T05:41:04.995Z,114.40
2023-02-08T05:43:31.467Z,122.70
2023-02-08T05:45:57.939Z,112.50
2023-02-08T05:48:24.714Z,108.40
2023-02-08T05:50:51.123Z,114.50
2023-02-08T05:53:17.624Z,96.60
2023-02-08T05:55:45.362Z,115.90
2023-02-08T05:58:12.824Z,125.30
2023-02-08T06:00:39.916Z,122.20
2023-02-08T06:03:07.018Z,134.10
2023-02-08T06:05:34.392Z,153.20
2023-02-08T06:08:01.022Z,141.00
2023-02-08T06:10:27.581Z,118.20
2023-02-08T06:12:54.045Z,124.60
2023-02-08T06:15:20.533Z,136.70
2023-02-08T06:17:47.085Z,139.60
2023-02-08T06:20:14.128Z,142.20
2023-02-08T06:22:40.643Z,152.00
2023-02-08T06:25:07.483Z,171.60
2023-02-08T06:27:34.024Z,151.90
2023-02-08T06:30:00.713Z,138.90
2023-02-08T06:32:27.654Z,120.20
2023-02-08T06:34:54.127Z,128.60
2023-02-08T06:37:20.951Z,138.00
2023-02-08T06:39:47.997Z,151.70
2023-02-08T06:42:14.540Z,180.00
2023-02-08T06:44:51.346Z,171.70
2023-02-08T06:47:21.138Z,132.80
2023-02-08T06:49:47.678Z,196.80
2023-02-08T06:52:14.268Z,144.50
2023-02-08T06:54:40.799Z,160.70
2023-02-08T06:57:07.504Z,172.80
2023-02-08T06:59:34.939Z,144.20
2023-02-08T07:02:01.653Z,166.20
2023-02-08T07:04:28.443Z,119.40
2023-02-08T07:06:54.986Z,148.10
2023-02-08T07:09:21.522Z,115.70
2023-02-08T07:11:48.081Z,117.70
2023-02-08T07:14:15.121Z,129.50
2023-02-08T07:16:42.416Z,125.90
2023-02-08T07:19:09.117Z,121.10
2023-02-08T07:21:35.658Z,120.50
2023-02-08T07:24:02.198Z,106.40
2023-02-08T07:26:28.736Z,106.50
2023-02-08T07:28:55.174Z,111.60
2023-02-08T07:31:21.574Z,121.30
2023-02-08T07:33:48.353Z,222.50
2023-02-08T07:36:14.786Z,117.80
2023-02-08T07:38:41.225Z,106.40
2023-02-08T07:41:11.543Z,113.50
2023-02-08T07:43:39.573Z,123.40
2023-02-08T07:46:07.112Z,179.60
2023-02-08T07:48:34.340Z,97.50
2023-02-08T07:51:00.913Z,110.20
2023-02-08T07:53:27.420Z,93.60
2023-02-08T07:55:53.903Z,107.50
2023-02-08T07:58:20.403Z,85.50
2023-02-08T08:00:47.047Z,81.60
2023-02-08T08:03:13.911Z,103.60
2023-02-08T08:05:41.142Z,75.30
2023-02-08T08:08:09.040Z,80.60
2023-02-08T08:10:35.485Z,83.80
2023-02-08T08:13:01.998Z,95.10
2023-02-08T08:15:28.728Z,83.00
2023-02-08T08:17:55.231Z,87.90
2023-02-08T08:20:21.711Z,77.00
2023-02-08T08:22:48.144Z,71.90
2023-02-08T08:25:14.680Z,84.20
2023-02-08T08:27:41.523Z,99.80
2023-02-08T08:30:11.002Z,101.80
2023-02-08T08:32:38.410Z,77.10
2023-02-08T08:35:07.085Z,67.00
2023-02-08T08:37:34.623Z,59.00
2023-02-08T08:40:01.136Z,50.00
2023-02-08T08:42:27.719Z,50.70
2023-02-08T08:44:54.411Z,52.50
2023-02-08T08:47:21.318Z,53.90
2023-02-08T08:49:47.847Z,46.20
2023-02-08T08:52:17.048Z,50.30
2023-02-08T08:54:43.798Z,46.50
2023-02-08T08:57:10.300Z,52.60
2023-02-08T08:59:36.803Z,57.00
2023-02-08T09:02:03.477Z,54.00
2023-02-08T09:04:30.170Z,47.30
2023-02-08T09:06:56.801Z,50.30
2023-02-08T09:09:23.455Z,52.80
2023-02-08T09:11:49.971Z,56.10
2023-02-08T09:14:16.498Z,51.80
2023-02-08T09:16:44.298Z,51.50
2023-02-08T09:19:10.847Z,47.90
2023-02-08T09:21:37.268Z,43.00
2023-02-08T09:24:04.635Z,42.30
2023-02-08T09:26:31.268Z,41.60
2023-02-08T09:28:57.690Z,33.50
2023-02-08T09:31:26.906Z,35.00
2023-02-08T09:33:56.558Z,27.80
2023-02-08T09:36:25.846Z,31.60
2023-02-08T09:38:56.141Z,21.00
2023-02-08T09:41:28.416Z,20.40
2023-02-08T09:44:25.370Z,25.20
2023-02-08T09:47:03.494Z,16.90
2023-02-08T09:49:58.932Z,23.20
2023-02-08T09:52:41.109Z,15.60
2023-02-08T09:55:40.132Z,14.30
2023-02-08T09:58:47.300Z,15.80
2023-02-08T10:01:21.196Z,14.00
2023-02-08T10:03:49.445Z,14.60
2023-02-08T10:06:19.112Z,14.80
2023-02-08T10:08:49.126Z,14.60
2023-02-08T10:11:53.193Z,12.40
2023-02-08T10:14:35.054Z,11.80
2023-02-08T10:17:09.304Z,11.70
2023-02-08T10:19:41.942Z,13.40
2023-02-08T10:22:27.100Z,14.00
2023-02-08T10:25:00.625Z,14.80
2023-02-08T10:27:36.378Z,14.40
2023-02-08T10:30:29.619Z,11.30
2023-02-08T10:33:17.590Z,15.80
2023-02-08T10:35:50.023Z,17.60
2023-02-08T10:38:19.578Z,16.50
2023-02-08T10:40:52.669Z,15.70
2023-02-08T10:43:25.321Z,15.10
2023-02-08T10:46:00.854Z,16.20
2023-02-08T10:48:49.162Z,13.90
2023-02-08T10:51:20.221Z,16.50
2023-02-08T10:53:47.571Z,15.20
2023-02-08T10:56:47.600Z,16.00
2023-02-08T10:59:25.896Z,14.20
2023-02-08T11:01:53.780Z,13.00
2023-02-08T11:04:20.854Z,13.10
2023-02-08T11:06:49.371Z,14.60
2023-02-08T11:09:31.163Z,14.20
2023-02-08T11:12:00.297Z,12.90
2023-02-08T11:14:46.852Z,11.60
2023-02-08T11:17:28.853Z,14.10
2023-02-08T11:19:56.799Z,17.90
2023-02-08T11:22:26.335Z,17.00
2023-02-08T11:25:01.277Z,14.40
2023-02-08T11:27:38.847Z,19.10
2023-02-08T11:30:14.586Z,17.50
2023-02-08T11:32:42.657Z,15.70
2023-02-08T11:35:24.875Z,15.90
2023-02-08T11:37:54.777Z,16.40
2023-02-08T11:40:28.686Z,17.60
2023-02-08T11:42:56.056Z,13.80
2023-02-08T11:45:27.445Z,11.40
2023-02-08T11:47:54.533Z,15.70
2023-02-08T11:50:30.331Z,11.60
2023-02-08T11:53:02.760Z,12.70
2023-02-08T11:55:32.614Z,13.30
2023-02-08T11:58:03.146Z,13.30
2023-02-08T12:00:35.159Z,13.50
2023-02-08T12:03:13.778Z,11.40
2023-02-08T12:06:18.364Z,13.00
2023-02-08T12:09:02.567Z,12.70
2023-02-08T12:11:38.984Z,14.20
2023-02-08T12:14:23.861Z,14.00
2023-02-08T12:16:50.234Z,13.50
2023-02-08T12:19:51.052Z,11.50
2023-02-08T12:22:24.769Z,18.60
2023-02-08T12:25:06.750Z,15.10
2023-02-08T12:27:51.679Z,15.40
2023-02-08T12:30:29.701Z,16.00
2023-02-08T12:33:21.791Z,16.20
2023-02-08T12:36:05.146Z,14.50
2023-02-08T12:38:50.345Z,15.60
2023-02-08T12:41:28.983Z,13.00
2023-02-08T12:44:19.378Z,13.60
2023-02-08T12:47:02.523Z,14.00
2023-02-08T12:49:54.704Z,12.30
2023-02-08T12:52:24.250Z,13.90
2023-02-08T12:54:58.679Z,13.50
2023-02-08T12:57:31.635Z,12.20
2023-02-08T13:00:04.349Z,16.60
2023-02-08T13:02:45.561Z,13.90
2023-02-08T13:05:22.509Z,15.20
2023-02-08T13:07:55.299Z,13.50
2023-02-08T13:10:36.404Z,13.70
2023-02-08T13:13:23.966Z,13.80
2023-02-08T13:16:15.010Z,15.40
2023-02-08T13:18:49.005Z,12.60
2023-02-08T13:21:20.708Z,14.70
2023-02-08T13:23:52.853Z,14.20
2023-02-08T13:26:23.901Z,14.00
2023-02-08T13:28:53.932Z,13.30
2023-02-08T13:31:32.064Z,15.90
2023-02-08T13:34:05.160Z,13.90
2023-02-08T13:36:39.767Z,15.10
2023-02-08T13:39:09.334Z,17.10
2023-02-08T13:41:36.757Z,17.20
2023-02-08T13:44:06.967Z,16.30
2023-02-08T13:46:44.024Z,17.50
2023-02-08T13:49:42.428Z,17.50
2023-02-08T13:52:10.919Z,17.70
2023-02-08T13:54:37.807Z,18.10
2023-02-08T13:57:43.385Z,17.40
2023-02-08T14:00:25.548Z,15.70
2023-02-08T14:03:07.486Z,18.40
2023-02-08T14:05:52.623Z,14.60
2023-02-08T14:08:25.886Z,17.20
2023-02-08T14:11:14.568Z,15.40
2023-02-08T14:14:05.845Z,16.30
2023-02-08T14:16:38.398Z,14.60
2023-02-08T14:19:20.176Z,16.70
2023-02-08T14:22:02.079Z,19.40
2023-02-08T14:24:42.485Z,19.20
2023-02-08T14:27:33.384Z,18.60
2023-02-08T14:30:06.365Z,18.10
2023-02-08T14:32:37.872Z,32.70
2023-02-08T14:37:41.802Z,45.50
2023-02-08T14:40:21.873Z,24.20
2023-02-08T14:42:59.158Z,24.40
2023-02-08T14:45:28.489Z,19.20
2023-02-08T14:48:00.568Z,25.20
2023-02-08T14:50:31.235Z,23.40
2023-02-08T14:53:03.774Z,22.90
2023-02-08T14:55:37.469Z,22.10
2023-02-08T14:58:05.860Z,23.10
2023-02-08T15:00:36.309Z,23.60
2023-02-08T15:03:07.227Z,22.50
2023-02-08T15:05:46.325Z,24.50
2023-02-08T15:08:13.339Z,31.90
2023-02-08T15:10:43.261Z,32.60
2023-02-08T15:13:19.924Z,45.20
2023-02-08T15:15:53.208Z,48.00
2023-02-08T15:18:23.582Z,22.50
2023-02-08T15:21:15.983Z,30.50
2023-02-08T15:23:42.522Z,25.60
2023-02-08T15:26:23.597Z,26.40
2023-02-08T15:28:50.256Z,27.30
2023-02-08T15:31:20.597Z,29.70
2023-02-08T15:33:47.414Z,25.90
2023-02-08T15:36:32.799Z,28.60
2023-02-08T15:39:03.648Z,59.90
2023-02-08T15:41:32.998Z,32.90
2023-02-08T15:44:13.223Z,45.80
2023-02-08T15:46:41.483Z,39.10
2023-02-08T15:49:16.004Z,91.80
2023-02-08T15:51:45.613Z,238.40
2023-02-08T15:54:19.536Z,90.20
2023-02-08T15:56:54.670Z,63.10
2023-02-08T15:59:26.616Z,63.30
2023-02-08T16:01:55.525Z,54.20
2023-02-08T16:04:22.164Z,64.20
2023-02-08T16:06:56.913Z,77.10
2023-02-08T16:09:27.041Z,45.30
2023-02-08T16:11:58.245Z,55.50
2023-02-08T16:14:29.003Z,40.40
2023-02-08T16:19:30.611Z,43.70
2023-02-08T16:22:14.783Z,40.20
2023-02-08T16:24:41.384Z,62.70
2023-02-08T16:27:30.145Z,60.00
2023-02-08T16:29:57.668Z,64.40
2023-02-08T16:32:29.095Z,67.90
2023-02-08T16:34:56.471Z,70.80
2023-02-08T16:37:35.165Z,78.20
2023-02-08T16:40:04.906Z,81.40
2023-02-08T16:42:37.276Z,89.00
2023-02-08T16:45:21.387Z,128.20
2023-02-08T16:47:53.661Z,106.10
2023-02-08T16:50:26.713Z,88.70
2023-02-08T16:53:02.470Z,73.00
2023-02-08T16:55:32.439Z,111.20
2023-02-08T16:57:59.846Z,77.50
2023-02-08T17:00:30.267Z,84.10
2023-02-08T17:02:57.173Z,88.20
2023-02-08T17:05:27.282Z,113.10
2023-02-08T17:07:54.456Z,123.50
2023-02-08T17:10:28.246Z,100.90
2023-02-08T17:13:04.050Z,99.30
2023-02-08T17:15:39.853Z,132.80
2023-02-08T17:18:06.358Z,124.10
2023-02-08T17:20:35.371Z,127.30
2023-02-08T17:23:04.185Z,118.70
2023-02-08T17:25:32.795Z,340.80
2023-02-08T17:28:05.926Z,204.00
2023-02-08T17:30:34.179Z,147.00
2023-02-08T17:33:00.719Z,123.00
2023-02-08T17:35:28.882Z,132.70
2023-02-08T17:37:57.266Z,173.90
2023-02-08T17:40:31.111Z,127.30
2023-02-08T17:42:57.941Z,123.80
2023-02-08T17:45:24.669Z,129.70
2023-02-08T17:47:51.415Z,115.00
2023-02-08T17:50:18.813Z,108.60
2023-02-08T17:52:46.232Z,119.80
2023-02-08T17:55:15.128Z,211.30
2023-02-08T17:57:43.118Z,214.70
2023-02-08T18:00:18.686Z,205.80
2023-02-08T18:02:50.997Z,117.20
2023-02-08T18:05:20.887Z,212.80
2023-02-08T18:07:47.895Z,183.70
2023-02-08T18:10:14.946Z,220.90
2023-02-08T18:12:42.323Z,187.50
2023-02-08T18:15:12.042Z,236.90
2023-02-08T18:17:39.692Z,256.00
2023-02-08T18:20:07.261Z,277.70
2023-02-08T18:22:33.870Z,329.20
2023-02-08T18:25:00.415Z,367.60
2023-02-08T18:27:26.861Z,383.90
2023-02-08T18:29:54.328Z,311.10
2023-02-08T18:32:20.793Z,351.30
2023-02-08T18:34:48.342Z,264.20
2023-02-08T18:37:15.712Z,210.00
2023-02-08T18:39:42.636Z,198.40
2023-02-08T18:42:09.097Z,203.70
2023-02-08T18:44:37.911Z,187.00
2023-02-08T18:47:07.067Z,198.70
2023-02-08T18:49:34.625Z,181.90
2023-02-08T18:52:01.308Z,222.90
2023-02-08T18:54:29.352Z,314.10
2023-02-08T18:56:56.026Z,401.20
2023-02-08T18:59:22.626Z,390.80
2023-02-08T19:01:49.363Z,335.20
2023-02-08T19:04:16.120Z,371.20
2023-02-08T19:06:42.595Z,391.10
2023-02-08T19:09:09.580Z,328.20
2023-02-08T19:11:39.486Z,310.20
2023-02-08T19:14:08.678Z,316.90
2023-02-08T19:16:37.406Z,382.70
2023-02-08T19:19:06.006Z,329.20
2023-02-08T19:21:33.774Z,363.60
2023-02-08T19:24:01.859Z,388.30
2023-02-08T19:26:31.487Z,359.90
2023-02-08T19:29:00.259Z,370.50
2023-02-08T19:31:28.144Z,263.90
2023-02-08T19:33:57.971Z,331.50
2023-02-08T19:36:31.281Z,312.30
2023-02-08T19:38:58.798Z,311.00
2023-02-08T19:41:37.934Z,298.20
2023-02-08T19:44:07.622Z,334.60
2023-02-08T19:46:36.146Z,300.50
2023-02-08T19:49:02.894Z,321.10
2023-02-08T19:51:35.706Z,313.30
2023-02-08T19:54:05.595Z,317.30
2023-02-08T19:56:32.576Z,350.70
2023-02-08T19:58:59.381Z,383.60
2023-02-08T20:01:26.129Z,362.50
2023-02-08T20:03:54.062Z,371.10
2023-02-08T20:06:24.045Z,378.40
2023-02-08T20:08:50.831Z,342.20
2023-02-08T20:11:26.751Z,316.90
2023-02-08T20:13:55.244Z,323.70
2023-02-08T20:16:22.946Z,285.50
2023-02-08T20:18:50.775Z,286.60
2023-02-08T20:21:18.491Z,307.70
2023-02-08T20:23:46.204Z,293.90
2023-02-08T20:26:22.527Z,266.20
2023-02-08T20:28:52.779Z,251.10
2023-02-08T20:31:23.616Z,262.80
2023-02-08T20:33:51.006Z,258.10
2023-02-08T20:36:23.234Z,286.60
2023-02-08T20:38:52.791Z,286.10
2023-02-08T20:41:20.690Z,271.50
2023-02-08T20:43:47.342Z,275.10
2023-02-08T20:46:17.220Z,283.70
2023-02-08T20:48:44.493Z,273.70
2023-02-08T20:51:14.232Z,344.70
2023-02-08T20:53:43.590Z,446.50
2023-02-08T20:56:13.789Z,450.60
2023-02-08T20:58:40.782Z,447.30
2023-02-08T21:01:19.337Z,467.10
2023-02-08T21:03:46.240Z,443.80
2023-02-08T21:06:25.447Z,467.20
2023-02-08T21:08:52.659Z,454.30
2023-02-08T21:11:21.527Z,419.20
2023-02-08T21:13:48.961Z,443.40
2023-02-08T21:16:17.088Z,442.40
2023-02-08T21:18:44.191Z,445.00
2023-02-08T21:21:10.766Z,425.00
2023-02-08T21:23:38.228Z,418.10
2023-02-08T21:26:07.204Z,424.70
2023-02-08T21:28:34.728Z,419.70
2023-02-08T21:31:06.818Z,436.40
2023-02-08T21:33:34.973Z,429.10
2023-02-08T21:36:03.127Z,482.60
2023-02-08T21:38:30.578Z,492.50
2023-02-08T21:40:57.125Z,450.70
2023-02-08T21:43:23.653Z,454.90
2023-02-08T21:45:50.146Z,505.60
2023-02-08T21:48:16.747Z,511.30
2023-02-08T21:50:43.670Z,485.80
2023-02-08T21:53:12.790Z,448.60
2023-02-08T21:55:44.189Z,464.70
2023-02-08T21:58:10.660Z,438.70
2023-02-08T22:00:37.163Z,430.60
2023-02-08T22:03:03.887Z,423.90
2023-02-08T22:05:30.921Z,504.40
2023-02-08T22:07:58.492Z,476.00
2023-02-08T22:10:27.918Z,441.60
2023-02-08T22:12:55.907Z,457.30
2023-02-08T22:15:25.236Z,502.00
2023-02-08T22:17:57.409Z,409.80
2023-02-08T22:20:24.750Z,398.30
2023-02-08T22:22:53.088Z,383.30
2023-02-08T22:25:21.258Z,421.60
2023-02-08T22:27:48.438Z,421.10
2023-02-08T22:30:17.376Z,361.80
2023-02-08T22:32:45.907Z,347.70
2023-02-08T22:35:13.099Z,339.30
2023-02-08T22:37:40.218Z,340.60
2023-02-08T22:40:08.470Z,359.50
2023-02-08T22:42:35.149Z,386.00
2023-02-08T22:45:01.638Z,415.70
2023-02-08T22:47:28.143Z,416.80
2023-02-08T22:49:56.933Z,453.90
2023-02-08T22:52:23.377Z,431.20
2023-02-08T22:54:50.844Z,410.30
2023-02-08T22:57:17.808Z,390.50
2023-02-08T22:59:44.346Z,390.80
2023-02-08T23:02:10.938Z,403.00
2023-02-08T23:04:38.052Z,332.60
2023-02-08T23:07:05.013Z,338.60
2023-02-08T23:09:31.458Z,302.70
2023-02-08T23:11:58.328Z,281.60
2023-02-08T23:14:24.818Z,351.80
2023-02-08T23:16:51.858Z,366.10
2023-02-08T23:19:19.448Z,382.20
2023-02-08T23:21:46.060Z,409.60
2023-02-08T23:24:12.955Z,388.40
2023-02-08T23:26:39.801Z,373.90
2023-02-08T23:29:06.241Z,369.00
2023-02-08T23:31:33.260Z,353.40
2023-02-08T23:34:00.730Z,373.20
2023-02-08T23:36:27.479Z,339.10
2023-02-08T23:38:55.352Z,341.10
2023-02-08T23:41:23.675Z,377.60
2023-02-08T23:43:51.661Z,334.70
2023-02-08T23:46:21.127Z,333.20
2023-02-08T23:48:48.401Z,354.80
2023-02-08T23:51:16.240Z,387.50
2023-02-08T23:53:42.879Z,413.20
2023-02-08T23:56:19.363Z,414.30
2023-02-08T23:58:48.857Z,417.80
